Aviation Digital Data Service (ADDS)

Output produced by METARs form (0716 UTC 22 August 2017)
found at http://aviationweather.gov/adds/metars/
 
KPIT 220520Z 2206/2312 19004KT P6SM BKN250 
     FM221700 23014G22KT P6SM VCTS BKN050CB 
     FM222000 23013G21KT 6SM -SHRA VCTS OVC035CB 
     FM230200 27008KT P6SM BKN025 
     FM230900 31005KT P6SM BKN050